createdAt,value
2018-04-02T00:00:49.045Z,90.50
2018-04-02T00:01:49.055Z,94.30
2018-04-02T00:02:49.074Z,93.70
2018-04-02T00:03:49.079Z,95.80
2018-04-02T00:04:49.095Z,94.20
2018-04-02T00:05:49.109Z,90.80
2018-04-02T00:06:49.118Z,95.60
2018-04-02T00:07:49.137Z,92.10
2018-04-02T00:08:49.198Z,94.60
2018-04-02T00:09:49.159Z,94.60
2018-04-02T00:10:49.170Z,97.80
2018-04-02T00:11:49.184Z,98.00
2018-04-02T00:12:49.201Z,97.60
2018-04-02T00:13:49.208Z,97.40
2018-04-02T00:14:49.227Z,100.80
2018-04-02T00:15:49.287Z,103.00
2018-04-02T00:16:49.248Z,102.60
2018-04-02T00:17:49.264Z,104.80
2018-04-02T00:18:49.272Z,106.50
2018-04-02T00:19:49.285Z,107.90
2018-04-02T00:20:49.299Z,107.10
2018-04-02T00:21:49.311Z,105.80
2018-04-02T00:22:49.325Z,110.10
2018-04-02T00:23:49.435Z,108.80
2018-04-02T00:24:49.349Z,106.20
2018-04-02T00:25:49.362Z,106.80
2018-04-02T00:26:49.377Z,105.80
2018-04-02T00:27:49.390Z,104.50
2018-04-02T00:28:49.401Z,101.30
2018-04-02T00:29:49.413Z,104.70
2018-04-02T00:30:49.425Z,105.60
2018-04-02T00:31:49.437Z,107.90
2018-04-02T00:32:49.454Z,103.40
2018-04-02T00:33:49.462Z,106.30
2018-04-02T00:34:49.475Z,105.40
2018-04-02T00:35:49.485Z,101.80
2018-04-02T00:36:49.499Z,105.60
2018-04-02T00:37:49.512Z,104.70
2018-04-02T00:38:49.525Z,102.70
2018-04-02T00:39:49.538Z,102.40
2018-04-02T00:40:49.548Z,103.10
2018-04-02T00:41:49.563Z,102.70
2018-04-02T00:42:49.574Z,101.60
2018-04-02T00:43:49.588Z,102.40
2018-04-02T00:44:49.599Z,105.90
2018-04-02T00:45:49.613Z,106.80
2018-04-02T00:46:49.629Z,104.70
2018-04-02T00:47:49.688Z,105.60
2018-04-02T00:48:50.032Z,106.80
2018-04-02T00:49:49.661Z,105.50
2018-04-02T00:50:49.675Z,105.80
2018-04-02T00:51:49.693Z,103.70
2018-04-02T00:52:49.700Z,106.80
2018-04-02T00:53:49.813Z,107.60
2018-04-02T00:54:49.727Z,107.60
2018-04-02T00:55:49.740Z,109.10
2018-04-02T00:56:49.752Z,108.90
2018-04-02T00:57:49.766Z,110.20
2018-04-02T00:58:49.778Z,110.30
2018-04-02T00:59:49.792Z,112.80
2018-04-02T01:00:49.802Z,111.20
2018-04-02T01:01:49.817Z,107.70
2018-04-02T01:02:49.829Z,109.70
2018-04-02T01:03:49.870Z,107.70
2018-04-02T01:04:49.855Z,107.70
2018-04-02T01:05:49.869Z,110.60
2018-04-02T01:06:49.880Z,106.50
2018-04-02T01:07:49.900Z,108.30
2018-04-02T01:08:49.905Z,110.90
2018-04-02T01:09:49.917Z,111.30
2018-04-02T01:10:49.929Z,110.60
2018-04-02T01:11:49.949Z,110.10
2018-04-02T01:12:49.957Z,109.10
2018-04-02T01:13:49.968Z,108.90
2018-04-02T01:14:49.984Z,109.60
2018-04-02T01:15:49.993Z,109.30
2018-04-02T01:16:50.013Z,106.40
2018-04-02T01:17:50.019Z,109.50
2018-04-02T01:18:50.032Z,107.00
2018-04-02T01:19:50.047Z,107.00
2018-04-02T01:21:50.094Z,110.60
2018-04-02T01:22:50.082Z,109.80
2018-04-02T01:23:50.095Z,107.30
2018-04-02T01:24:50.111Z,108.20
2018-04-02T01:25:50.131Z,107.60
2018-04-02T01:26:50.133Z,106.20
2018-04-02T01:27:50.144Z,105.40
2018-04-02T01:28:50.165Z,105.70
2018-04-02T01:29:50.174Z,103.00
2018-04-02T01:30:50.185Z,102.40
2018-04-02T01:31:50.200Z,103.20
2018-04-02T01:32:50.212Z,104.70
2018-04-02T01:33:50.225Z,97.70
2018-04-02T01:34:50.289Z,91.60
2018-04-02T01:35:50.250Z,89.70
2018-04-02T01:36:50.260Z,89.10
2018-04-02T01:37:50.279Z,90.70
2018-04-02T01:38:50.290Z,92.00
2018-04-02T01:39:50.300Z,91.70
2018-04-02T01:40:50.317Z,92.80
2018-04-02T01:41:50.327Z,92.00
2018-04-02T01:42:50.350Z,95.00
2018-04-02T01:43:50.351Z,93.50
2018-04-02T01:44:50.366Z,94.50
2018-04-02T01:45:50.395Z,97.00
2018-04-02T01:46:50.393Z,95.90
2018-04-02T01:47:50.402Z,98.50
2018-04-02T01:48:50.416Z,96.30
2018-04-02T01:49:50.430Z,98.70
2018-04-02T01:50:50.444Z,101.70
2018-04-02T01:51:50.509Z,100.20
2018-04-02T01:52:50.467Z,99.00
2018-04-02T01:53:50.498Z,98.70
2018-04-02T01:54:50.493Z,95.20
2018-04-02T01:55:50.509Z,97.60
2018-04-02T01:56:50.525Z,97.80
2018-04-02T01:57:50.538Z,99.10
2018-04-02T01:58:50.543Z,97.20
2018-04-02T01:59:50.555Z,98.50
2018-04-02T02:00:50.573Z,97.30
2018-04-02T02:01:50.584Z,96.40
2018-04-02T02:02:50.596Z,98.70
2018-04-02T02:03:50.608Z,99.10
2018-04-02T02:04:50.620Z,97.10
2018-04-02T02:05:50.638Z,98.80
2018-04-02T02:06:50.646Z,100.00
2018-04-02T02:07:50.658Z,97.30
2018-04-02T02:08:50.672Z,92.30
2018-04-02T02:09:50.685Z,80.70
2018-04-02T02:10:50.697Z,79.40
2018-04-02T02:11:50.728Z,70.90
2018-04-02T02:12:50.722Z,68.80
2018-04-02T02:13:50.737Z,69.80
2018-04-02T02:14:50.749Z,67.80
2018-04-02T02:15:50.762Z,70.10
2018-04-02T02:16:50.779Z,68.30
2018-04-02T02:17:50.788Z,69.70
2018-04-02T02:18:50.807Z,68.60
2018-04-02T02:19:50.814Z,70.30
2018-04-02T02:20:50.824Z,69.30
2018-04-02T02:21:50.842Z,70.90
2018-04-02T02:22:50.904Z,71.10
2018-04-02T02:23:50.932Z,68.20
2018-04-02T02:24:50.882Z,67.70
2018-04-02T02:25:50.890Z,68.10
2018-04-02T02:26:50.905Z,69.50
2018-04-02T02:27:50.917Z,69.30
2018-04-02T02:28:50.929Z,69.30
2018-04-02T02:29:50.945Z,70.80
2018-04-02T02:30:50.957Z,67.70
2018-04-02T02:31:50.972Z,68.00
2018-04-02T02:32:50.991Z,67.10
2018-04-02T02:33:50.995Z,67.20
2018-04-02T02:34:51.014Z,67.70
2018-04-02T02:35:51.017Z,66.20
2018-04-02T02:36:51.031Z,65.20
2018-04-02T02:37:51.044Z,63.30
2018-04-02T02:38:51.056Z,63.90
2018-04-02T02:39:51.076Z,64.40
2018-04-02T02:40:51.083Z,62.40
2018-04-02T02:41:51.095Z,64.70
2018-04-02T02:42:51.109Z,63.60
2018-04-02T02:43:51.118Z,64.00
2018-04-02T02:44:51.133Z,65.40
2018-04-02T02:45:51.145Z,64.20
2018-04-02T02:46:51.159Z,63.60
2018-04-02T02:47:51.175Z,62.80
2018-04-02T02:48:51.184Z,61.20
2018-04-02T02:49:51.202Z,59.30
2018-04-02T02:50:51.210Z,57.70
2018-04-02T02:51:51.226Z,56.60
2018-04-02T02:52:51.240Z,58.20
2018-04-02T02:53:51.249Z,56.50
2018-04-02T02:54:51.266Z,56.70
2018-04-02T02:55:51.277Z,56.20
2018-04-02T02:56:51.381Z,54.70
2018-04-02T02:57:51.501Z,55.00
2018-04-02T02:58:51.312Z,53.90
2018-04-02T02:59:51.324Z,54.70
2018-04-02T03:00:51.338Z,54.30
2018-04-02T03:01:51.349Z,55.70
2018-04-02T03:02:51.365Z,54.20
2018-04-02T03:03:51.374Z,56.70
2018-04-02T03:04:51.390Z,56.50
2018-04-02T03:05:51.403Z,56.90
2018-04-02T03:06:51.415Z,56.40
2018-04-02T03:07:51.420Z,58.10
2018-04-02T03:08:51.432Z,57.30
2018-04-02T03:09:51.442Z,56.20
2018-04-02T03:10:51.457Z,56.40
2018-04-02T03:11:51.466Z,57.50
2018-04-02T03:12:51.480Z,57.30
2018-04-02T03:13:51.493Z,55.70
2018-04-02T03:14:51.504Z,57.20
2018-04-02T03:15:51.521Z,57.60
2018-04-02T03:16:51.532Z,58.10
2018-04-02T03:17:51.548Z,57.30
2018-04-02T03:18:51.556Z,58.50
2018-04-02T03:19:51.569Z,58.70
2018-04-02T03:20:51.581Z,58.70
2018-04-02T03:21:51.599Z,59.60
2018-04-02T03:22:51.608Z,60.40
2018-04-02T03:23:51.623Z,59.00
2018-04-02T03:24:51.633Z,58.90
2018-04-02T03:25:51.650Z,60.10
2018-04-02T03:26:51.660Z,60.90
2018-04-02T03:27:51.723Z,59.10
2018-04-02T03:28:51.682Z,60.80
2018-04-02T03:29:51.699Z,59.00
2018-04-02T03:30:51.710Z,58.80
2018-04-02T03:31:51.720Z,60.40
2018-04-02T03:32:51.736Z,60.90
2018-04-02T03:33:51.744Z,61.10
2018-04-02T03:34:51.758Z,60.50
2018-04-02T03:35:51.771Z,60.50
2018-04-02T03:36:51.782Z,61.80
2018-04-02T03:37:51.797Z,60.30
2018-04-02T03:38:51.815Z,61.50
2018-04-02T03:39:51.820Z,62.30
2018-04-02T03:40:51.834Z,60.80
2018-04-02T03:41:51.848Z,64.40
2018-04-02T03:42:51.864Z,68.10
2018-04-02T03:43:51.872Z,73.20
2018-04-02T03:44:51.890Z,70.50
2018-04-02T03:45:51.897Z,75.20
2018-04-02T03:46:51.918Z,75.80
2018-04-02T03:47:51.920Z,75.00
2018-04-02T03:48:51.939Z,78.70
2018-04-02T03:49:51.948Z,74.90
2018-04-02T03:50:51.959Z,78.20
2018-04-02T03:51:51.975Z,77.60
2018-04-02T03:52:51.986Z,77.50
2018-04-02T03:53:52.005Z,78.90
2018-04-02T03:54:52.010Z,75.10
2018-04-02T03:55:52.032Z,76.10
2018-04-02T03:56:52.081Z,75.30
2018-04-02T03:57:52.064Z,80.10
2018-04-02T03:58:52.067Z,80.30
2018-04-02T03:59:52.145Z,77.90
2018-04-02T04:00:52.087Z,79.00
2018-04-02T04:01:52.104Z,77.10
2018-04-02T04:02:52.120Z,77.40
2018-04-02T04:03:52.129Z,74.50
2018-04-02T04:04:52.135Z,71.20
2018-04-02T04:05:52.150Z,69.30
2018-04-02T04:06:52.161Z,72.10
2018-04-02T04:07:52.175Z,70.60
2018-04-02T04:08:52.185Z,73.70
2018-04-02T04:09:52.207Z,72.80
2018-04-02T04:10:52.216Z,76.00
2018-04-02T04:11:52.229Z,74.50
2018-04-02T04:12:52.235Z,72.90
2018-04-02T04:13:52.252Z,70.80
2018-04-02T04:14:52.265Z,69.40
2018-04-02T04:15:52.277Z,71.80
2018-04-02T04:16:52.288Z,70.00
2018-04-02T04:17:52.302Z,72.30
2018-04-02T04:18:52.312Z,71.00
2018-04-02T04:19:52.323Z,67.90
2018-04-02T04:20:52.382Z,68.60
2018-04-02T04:21:52.349Z,67.70
2018-04-02T04:22:52.362Z,69.50
2018-04-02T04:23:52.380Z,69.80
2018-04-02T04:24:52.392Z,64.60
2018-04-02T04:25:52.398Z,69.20
2018-04-02T04:26:52.411Z,71.50
2018-04-02T04:27:52.427Z,68.40
2018-04-02T04:28:52.438Z,73.00
2018-04-02T04:29:52.448Z,72.20
2018-04-02T04:30:52.578Z,70.90
2018-04-02T04:31:52.592Z,69.80
2018-04-02T04:32:52.489Z,67.30
2018-04-02T04:33:52.498Z,70.10
2018-04-02T04:34:52.513Z,71.80
2018-04-02T04:35:52.523Z,71.40
2018-04-02T04:36:52.542Z,72.10
2018-04-02T04:37:52.548Z,70.70
2018-04-02T04:38:52.561Z,70.50
2018-04-02T04:39:52.573Z,70.30
2018-04-02T04:40:52.584Z,68.50
2018-04-02T04:41:52.597Z,68.10
2018-04-02T04:42:52.609Z,68.50
2018-04-02T04:43:52.622Z,67.00
2018-04-02T04:44:52.634Z,68.10
2018-04-02T04:45:52.648Z,68.80
2018-04-02T04:46:52.659Z,66.30
2018-04-02T04:47:52.674Z,63.60
2018-04-02T04:48:52.738Z,63.60
2018-04-02T04:49:52.697Z,63.80
2018-04-02T04:50:52.715Z,64.20
2018-04-02T04:51:52.721Z,66.90
2018-04-02T04:52:52.736Z,66.80
2018-04-02T04:53:52.752Z,68.90
2018-04-02T04:54:52.759Z,70.30
2018-04-02T04:55:52.775Z,71.60
2018-04-02T04:56:52.783Z,74.40
2018-04-02T04:57:52.796Z,74.10
2018-04-02T04:58:52.818Z,76.40
2018-04-02T04:59:52.819Z,76.80
2018-04-02T05:00:52.834Z,75.30
2018-04-02T05:01:52.847Z,75.00
2018-04-02T05:02:52.910Z,77.30
2018-04-02T05:03:52.981Z,77.00
2018-04-02T05:04:52.881Z,75.90
2018-04-02T05:05:52.895Z,76.70
2018-04-02T05:06:52.906Z,77.70
2018-04-02T05:07:52.922Z,77.40
2018-04-02T05:08:52.930Z,77.50
2018-04-02T05:09:52.948Z,78.70
2018-04-02T05:10:52.956Z,76.40
2018-04-02T05:11:53.088Z,78.60
2018-04-02T05:12:52.981Z,78.30
2018-04-02T05:13:52.998Z,80.80
2018-04-02T05:14:53.108Z,83.20
2018-04-02T05:15:53.023Z,89.20
2018-04-02T05:16:53.029Z,88.10
2018-04-02T05:17:53.044Z,89.10
2018-04-02T05:18:53.058Z,90.40
2018-04-02T05:19:53.065Z,91.20
2018-04-02T05:20:53.079Z,91.10
2018-04-02T05:21:53.091Z,92.00
2018-04-02T05:22:53.153Z,89.30
2018-04-02T05:23:53.115Z,90.20
2018-04-02T05:24:53.127Z,90.10
2018-04-02T05:25:53.139Z,91.90
2018-04-02T05:26:53.155Z,91.60
2018-04-02T05:27:53.173Z,93.70
2018-04-02T05:28:53.175Z,90.40
2018-04-02T05:29:53.190Z,92.50
2018-04-02T05:30:53.204Z,90.60
2018-04-02T05:31:53.213Z,91.30
2018-04-02T05:32:53.224Z,91.90
2018-04-02T05:33:53.238Z,92.60
2018-04-02T05:34:53.253Z,90.50
2018-04-02T05:35:53.576Z,92.70
2018-04-02T05:36:53.279Z,97.00
2018-04-02T05:37:53.288Z,93.30
2018-04-02T05:38:53.301Z,93.10
2018-04-02T05:39:53.316Z,94.00
2018-04-02T05:40:53.324Z,91.50
2018-04-02T05:41:53.335Z,92.10
2018-04-02T05:42:53.349Z,92.60
2018-04-02T05:43:53.361Z,91.40
2018-04-02T05:44:53.375Z,93.20
2018-04-02T05:45:53.390Z,93.00
2018-04-02T05:46:53.397Z,95.50
2018-04-02T05:47:53.511Z,94.90
2018-04-02T05:48:53.425Z,95.30
2018-04-02T05:49:53.433Z,96.10
2018-04-02T05:50:53.446Z,97.30
2018-04-02T05:51:53.464Z,96.10
2018-04-02T05:52:53.470Z,94.20
2018-04-02T05:53:53.489Z,96.40
2018-04-02T05:54:53.494Z,95.90
2018-04-02T05:55:53.507Z,96.50
2018-04-02T05:56:53.526Z,97.50
2018-04-02T05:57:53.535Z,95.00
2018-04-02T05:58:53.543Z,96.70
2018-04-02T05:59:53.557Z,93.10
2018-04-02T06:00:53.569Z,93.80
2018-04-02T06:01:53.584Z,94.70
2018-04-02T06:02:53.617Z,96.90
2018-04-02T06:03:53.616Z,95.30
2018-04-02T06:04:53.621Z,95.20
2018-04-02T06:05:53.940Z,95.00
2018-04-02T06:06:53.768Z,94.90
2018-04-02T06:07:53.657Z,96.40
2018-04-02T06:08:53.668Z,96.10
2018-04-02T06:09:53.681Z,95.40
2018-04-02T06:10:53.693Z,93.30
2018-04-02T06:11:53.710Z,94.10
2018-04-02T06:12:53.722Z,95.90
2018-04-02T06:13:53.730Z,95.50
2018-04-02T06:14:53.744Z,93.10
2018-04-02T06:15:53.754Z,94.70
2018-04-02T06:16:53.767Z,93.90
2018-04-02T06:17:53.781Z,92.00
2018-04-02T06:18:53.795Z,95.10
2018-04-02T06:19:53.812Z,94.90
2018-04-02T06:20:53.820Z,92.20
2018-04-02T06:21:53.832Z,93.40
2018-04-02T06:22:53.841Z,95.50
2018-04-02T06:23:53.854Z,95.90
2018-04-02T06:24:53.866Z,95.30
2018-04-02T06:25:53.879Z,94.90
2018-04-02T06:26:53.897Z,93.60
2018-04-02T06:27:53.903Z,96.50
2018-04-02T06:28:53.914Z,92.60
2018-04-02T06:29:53.930Z,95.00
2018-04-02T06:30:53.944Z,96.30
2018-04-02T06:31:53.970Z,92.40
2018-04-02T06:32:53.965Z,94.60
2018-04-02T06:33:53.988Z,92.50
2018-04-02T06:34:53.993Z,89.40
2018-04-02T06:35:54.007Z,92.10
2018-04-02T06:36:54.058Z,92.10
2018-04-02T06:37:54.034Z,91.70
2018-04-02T06:38:54.117Z,92.30
2018-04-02T06:39:54.068Z,93.80
2018-04-02T06:40:54.084Z,94.30
2018-04-02T06:41:54.102Z,91.50
2018-04-02T06:42:54.094Z,92.70
2018-04-02T06:43:54.110Z,90.40
2018-04-02T06:44:54.119Z,89.70
2018-04-02T06:45:54.134Z,90.90
2018-04-02T06:46:54.147Z,90.10
2018-04-02T06:47:54.159Z,90.00
2018-04-02T06:48:54.172Z,87.50
2018-04-02T06:49:54.189Z,88.40
2018-04-02T06:50:54.206Z,90.50
2018-04-02T06:51:54.837Z,89.50
2018-04-02T06:52:54.260Z,89.00
2018-04-02T06:53:54.236Z,90.40
2018-04-02T06:54:54.249Z,87.30
2018-04-02T06:55:54.261Z,87.70
2018-04-02T06:56:54.280Z,90.10
2018-04-02T06:57:54.286Z,89.70
2018-04-02T06:58:54.307Z,89.40
2018-04-02T06:59:54.312Z,91.90
2018-04-02T07:00:54.344Z,90.10
2018-04-02T07:01:54.341Z,90.10
2018-04-02T07:02:54.354Z,86.60
2018-04-02T07:03:54.451Z,88.50
2018-04-02T07:04:54.383Z,88.50
2018-04-02T07:05:54.390Z,89.10
2018-04-02T07:06:54.413Z,84.60
2018-04-02T07:07:54.421Z,87.20
2018-04-02T07:08:54.478Z,86.90
2018-04-02T07:09:54.445Z,85.90
2018-04-02T07:10:54.490Z,85.40
2018-04-02T07:11:54.466Z,85.70
2018-04-02T07:12:54.525Z,84.80
2018-04-02T07:13:54.499Z,83.30
2018-04-02T07:14:54.507Z,81.40
2018-04-02T07:15:54.525Z,84.30
2018-04-02T07:16:54.532Z,82.50
2018-04-02T07:17:54.545Z,79.90
2018-04-02T07:18:54.560Z,80.90
2018-04-02T07:19:54.571Z,81.70
2018-04-02T07:20:54.583Z,80.20
2018-04-02T07:21:54.598Z,79.30
2018-04-02T07:22:54.612Z,81.70
2018-04-02T07:23:54.626Z,82.50
2018-04-02T07:24:54.636Z,80.80
2018-04-02T07:25:54.652Z,81.80
2018-04-02T07:26:54.661Z,83.50
2018-04-02T07:27:54.675Z,82.40
2018-04-02T07:28:54.687Z,81.80
2018-04-02T07:29:54.707Z,80.10
2018-04-02T07:30:54.712Z,82.10
2018-04-02T07:31:54.735Z,82.30
2018-04-02T07:32:54.753Z,83.30
2018-04-02T07:33:54.832Z,81.10
2018-04-02T07:34:54.765Z,82.90
2018-04-02T07:35:54.778Z,81.70
2018-04-02T07:36:54.789Z,81.80
2018-04-02T07:37:54.812Z,81.00
2018-04-02T07:38:54.818Z,81.10
2018-04-02T07:39:54.897Z,80.60
2018-04-02T07:40:54.864Z,81.50
2018-04-02T07:41:54.857Z,80.10
2018-04-02T07:42:54.872Z,78.70
2018-04-02T07:43:54.883Z,79.20
2018-04-02T07:44:54.909Z,78.90
2018-04-02T07:45:54.911Z,77.80
2018-04-02T07:46:54.924Z,77.90
2018-04-02T07:47:54.948Z,79.10
2018-04-02T07:48:54.951Z,75.50
2018-04-02T07:49:54.960Z,77.10
2018-04-02T07:50:54.969Z,74.40
2018-04-02T07:51:54.991Z,75.20
2018-04-02T07:52:54.997Z,75.00
2018-04-02T07:53:55.066Z,75.10
2018-04-02T07:54:55.024Z,76.20
2018-04-02T07:55:55.035Z,75.70
2018-04-02T07:56:55.056Z,74.70
2018-04-02T07:57:55.082Z,72.10
2018-04-02T07:58:55.078Z,70.70
2018-04-02T07:59:55.088Z,73.80
2018-04-02T08:00:55.110Z,73.00
2018-04-02T08:01:55.121Z,71.40
2018-04-02T08:02:55.268Z,71.70
2018-04-02T08:03:55.160Z,71.80
2018-04-02T08:04:55.159Z,70.10
2018-04-02T08:05:55.170Z,69.40
2018-04-02T08:06:55.182Z,68.50
2018-04-02T08:07:55.197Z,67.30
2018-04-02T08:08:55.213Z,62.90
2018-04-02T08:09:55.231Z,62.90
2018-04-02T08:10:55.247Z,60.60
2018-04-02T08:11:55.249Z,61.20
2018-04-02T08:12:55.263Z,64.70
2018-04-02T08:13:55.418Z,61.60
2018-04-02T08:14:55.301Z,62.20
2018-04-02T08:15:55.345Z,61.00
2018-04-02T08:16:55.322Z,60.00
2018-04-02T08:17:55.341Z,61.20
2018-04-02T08:18:55.349Z,61.90
2018-04-02T08:19:55.364Z,60.10
2018-04-02T08:20:55.374Z,60.60
2018-04-02T08:21:55.390Z,59.60
2018-04-02T08:22:55.484Z,59.00
2018-04-02T08:23:55.434Z,62.20
2018-04-02T08:24:55.434Z,61.40
2018-04-02T08:25:55.451Z,62.10
2018-04-02T08:26:55.455Z,62.10
2018-04-02T08:27:55.468Z,62.20
2018-04-02T08:28:55.485Z,60.90
2018-04-02T08:29:55.499Z,61.00
2018-04-02T08:30:55.511Z,60.70
2018-04-02T08:31:55.624Z,60.90
2018-04-02T08:32:55.545Z,61.70
2018-04-02T08:33:55.557Z,60.00
2018-04-02T08:34:55.571Z,61.70
2018-04-02T08:35:55.586Z,60.70
2018-04-02T08:36:55.599Z,58.30
2018-04-02T08:37:55.612Z,58.00
2018-04-02T08:38:55.678Z,59.40
2018-04-02T08:39:55.639Z,59.70
2018-04-02T08:40:55.651Z,57.10
2018-04-02T08:41:55.674Z,58.10
2018-04-02T08:42:55.687Z,57.40
2018-04-02T08:43:55.696Z,57.80
2018-04-02T08:44:55.714Z,56.80
2018-04-02T08:45:55.723Z,55.30
2018-04-02T08:46:55.737Z,57.60
2018-04-02T08:48:55.764Z,56.00
2018-04-02T08:49:55.781Z,54.20
2018-04-02T08:50:55.798Z,54.40
2018-04-02T08:51:55.809Z,54.00
2018-04-02T08:52:55.872Z,54.50
2018-04-02T08:53:55.836Z,55.10
2018-04-02T08:54:55.851Z,55.70
2018-04-02T08:55:55.865Z,55.40
2018-04-02T08:56:55.879Z,52.10
2018-04-02T08:57:55.905Z,52.90
2018-04-02T08:58:55.909Z,53.50
2018-04-02T08:59:55.936Z,53.10
2018-04-02T09:00:55.936Z,51.40
2018-04-02T09:01:55.948Z,51.20
2018-04-02T09:02:55.974Z,50.50
2018-04-02T09:03:55.985Z,50.50
2018-04-02T09:04:56.026Z,50.10
2018-04-02T09:05:56.009Z,49.80
2018-04-02T09:06:56.034Z,49.80
2018-04-02T09:07:56.036Z,49.10
2018-04-02T09:08:56.053Z,51.20
2018-04-02T09:09:56.066Z,48.00
2018-04-02T09:10:56.086Z,49.10
2018-04-02T09:11:56.095Z,48.10
2018-04-02T09:12:56.108Z,47.30
2018-04-02T09:13:56.126Z,47.60
2018-04-02T09:14:56.140Z,46.50
2018-04-02T09:15:56.152Z,45.10
2018-04-02T09:16:56.168Z,43.50
2018-04-02T09:17:56.182Z,42.20
2018-04-02T09:18:56.202Z,45.90
2018-04-02T09:19:56.216Z,44.60
2018-04-02T09:20:56.255Z,43.30
2018-04-02T09:21:56.241Z,42.60
2018-04-02T09:22:56.256Z,40.50
2018-04-02T09:23:56.267Z,42.60
2018-04-02T09:24:56.286Z,42.20
2018-04-02T09:25:56.298Z,41.10
2018-04-02T09:26:56.312Z,40.50
2018-04-02T09:27:56.327Z,40.20
2018-04-02T09:28:56.342Z,40.60
2018-04-02T09:29:56.365Z,36.80
2018-04-02T09:30:56.378Z,37.00
2018-04-02T09:31:56.400Z,36.80
2018-04-02T09:32:56.402Z,38.70
2018-04-02T09:33:56.415Z,39.30
2018-04-02T09:34:56.430Z,37.40
2018-04-02T09:35:56.451Z,37.00
2018-04-02T09:36:56.510Z,38.30
2018-04-02T09:37:56.505Z,38.20
2018-04-02T09:38:56.490Z,37.20
2018-04-02T09:39:56.505Z,37.50
2018-04-02T09:40:56.518Z,35.50
2018-04-02T09:41:56.535Z,36.00
2018-04-02T09:42:56.560Z,35.70
2018-04-02T09:43:56.562Z,35.50
2018-04-02T09:44:56.577Z,35.70
2018-04-02T09:45:56.592Z,35.00
2018-04-02T09:46:56.616Z,36.10
2018-04-02T09:47:56.623Z,36.60
2018-04-02T09:48:56.636Z,37.10
2018-04-02T09:49:56.656Z,35.60
2018-04-02T09:50:56.667Z,35.40
2018-04-02T09:51:56.684Z,32.30
2018-04-02T09:52:56.702Z,31.30
2018-04-02T09:53:57.022Z,31.10
2018-04-02T09:54:56.729Z,32.30
2018-04-02T09:55:56.745Z,29.90
2018-04-02T09:56:56.761Z,28.70
2018-04-02T09:57:56.777Z,27.80
2018-04-02T09:58:56.789Z,27.30
2018-04-02T09:59:56.804Z,28.40
2018-04-02T10:00:56.821Z,29.10
2018-04-02T10:01:56.833Z,30.20
2018-04-02T10:02:56.864Z,29.90
2018-04-02T10:03:56.864Z,29.70
2018-04-02T10:04:56.999Z,30.30
2018-04-02T10:05:56.899Z,30.80
2018-04-02T10:06:56.915Z,30.80
2018-04-02T10:07:56.925Z,29.40
2018-04-02T10:08:56.947Z,29.00
2018-04-02T10:09:56.997Z,30.40
2018-04-02T10:10:56.974Z,30.90
2018-04-02T10:11:56.984Z,31.20
2018-04-02T10:12:57.001Z,30.60
2018-04-02T10:13:57.017Z,29.70
2018-04-02T10:14:57.037Z,27.90
2018-04-02T10:15:57.048Z,27.20
2018-04-02T10:16:57.062Z,28.70
2018-04-02T10:17:57.082Z,30.10
2018-04-02T10:18:57.095Z,30.10
2018-04-02T10:19:57.111Z,28.90
2018-04-02T10:20:57.121Z,27.70
2018-04-02T10:21:57.141Z,29.00
2018-04-02T10:22:57.151Z,29.60
2018-04-02T10:23:57.269Z,30.40
2018-04-02T10:24:57.182Z,29.50
2018-04-02T10:25:57.199Z,29.60
2018-04-02T10:26:57.213Z,29.20
2018-04-02T10:27:57.245Z,29.10
2018-04-02T10:28:57.244Z,31.10
2018-04-02T10:29:57.312Z,31.10
2018-04-02T10:30:57.276Z,29.90
2018-04-02T10:31:57.291Z,29.90
2018-04-02T10:32:57.306Z,29.70
2018-04-02T10:33:57.321Z,29.60
2018-04-02T10:34:57.350Z,29.80
2018-04-02T10:35:57.354Z,28.50
2018-04-02T10:36:57.367Z,29.80
2018-04-02T10:37:57.382Z,29.30
2018-04-02T10:38:57.498Z,30.00
2018-04-02T10:39:57.414Z,30.10
2018-04-02T10:40:57.429Z,29.40
2018-04-02T10:41:57.444Z,30.10
2018-04-02T10:42:57.467Z,29.10
2018-04-02T10:43:57.522Z,29.30
2018-04-02T10:44:57.492Z,29.40
2018-04-02T10:45:57.505Z,29.70
2018-04-02T10:46:57.521Z,29.30
2018-04-02T10:47:57.537Z,29.20
2018-04-02T10:48:57.547Z,29.20
2018-04-02T10:49:57.578Z,29.10
2018-04-02T10:50:57.587Z,28.90
2018-04-02T10:51:57.607Z,28.50
2018-04-02T10:52:57.611Z,27.30
2018-04-02T10:53:57.646Z,28.50
2018-04-02T10:54:57.658Z,28.00
2018-04-02T10:55:57.658Z,28.30
2018-04-02T10:56:57.673Z,28.80
2018-04-02T10:57:57.687Z,28.90
2018-04-02T10:58:57.714Z,27.60
2018-04-02T10:59:57.742Z,28.50
2018-04-02T11:00:57.770Z,27.70
2018-04-02T11:01:57.750Z,26.60
2018-04-02T11:02:57.766Z,26.40
2018-04-02T11:03:57.788Z,26.30
2018-04-02T11:04:57.820Z,25.30
2018-04-02T11:05:57.813Z,26.10
2018-04-02T11:06:57.822Z,25.40
2018-04-02T11:07:57.835Z,25.10
2018-04-02T11:08:57.855Z,24.70
2018-04-02T11:09:57.874Z,26.00
2018-04-02T11:10:57.881Z,26.20
2018-04-02T11:11:57.914Z,25.30
2018-04-02T11:12:57.916Z,24.80
2018-04-02T11:13:57.928Z,26.10
2018-04-02T11:14:57.944Z,26.10
2018-04-02T11:15:57.959Z,25.90
2018-04-02T11:16:57.976Z,24.80
2018-04-02T11:17:58.020Z,25.60
2018-04-02T11:18:58.008Z,25.10
2018-04-02T11:19:58.022Z,25.20
2018-04-02T11:20:58.040Z,25.50
2018-04-02T11:21:58.054Z,25.40
2018-04-02T11:22:58.068Z,25.30
2018-04-02T11:23:58.084Z,24.20
2018-04-02T11:24:58.101Z,24.50
2018-04-02T11:25:58.116Z,24.60
2018-04-02T11:26:58.133Z,23.20
2018-04-02T11:27:58.154Z,22.70
2018-04-02T11:28:58.170Z,22.60
2018-04-02T11:29:58.179Z,23.90
2018-04-02T11:30:58.193Z,23.70
2018-04-02T11:31:58.259Z,24.60
2018-04-02T11:32:58.225Z,24.70
2018-04-02T11:33:58.246Z,24.30
2018-04-02T11:34:58.261Z,24.60
2018-04-02T11:35:58.274Z,23.90
2018-04-02T11:36:58.288Z,23.70
2018-04-02T11:37:58.312Z,24.30
2018-04-02T11:38:58.320Z,23.30
2018-04-02T11:39:58.334Z,22.90
2018-04-02T11:40:58.351Z,24.20
2018-04-02T11:41:58.366Z,23.20
2018-04-02T11:42:58.567Z,23.00
2018-04-02T11:43:58.527Z,24.10
2018-04-02T11:44:58.421Z,22.80
2018-04-02T11:45:58.432Z,23.40
2018-04-02T11:46:58.448Z,23.20
2018-04-02T11:47:58.459Z,23.40
2018-04-02T11:48:58.475Z,23.00
2018-04-02T11:49:58.494Z,22.10
2018-04-02T11:50:58.506Z,21.40
2018-04-02T11:51:58.522Z,21.60
2018-04-02T11:52:58.537Z,19.30
2018-04-02T11:53:58.557Z,19.80
2018-04-02T11:54:58.570Z,20.50
2018-04-02T11:55:58.584Z,20.70
2018-04-02T11:56:58.601Z,18.70
2018-04-02T11:57:58.617Z,17.90
2018-04-02T11:58:58.631Z,18.40
2018-04-02T11:59:58.646Z,18.20
2018-04-02T12:00:58.661Z,19.80
2018-04-02T12:01:58.683Z,20.20
2018-04-02T12:02:58.703Z,20.50
2018-04-02T12:03:58.730Z,21.10
2018-04-02T12:04:58.730Z,20.70
2018-04-02T12:05:58.754Z,20.90
2018-04-02T12:06:58.770Z,19.50
2018-04-02T12:07:58.772Z,19.60
2018-04-02T12:08:58.787Z,20.20
2018-04-02T12:09:58.805Z,18.80
2018-04-02T12:10:58.822Z,19.50
2018-04-02T12:11:58.834Z,17.60
2018-04-02T12:12:58.849Z,15.70
2018-04-02T12:13:58.876Z,15.00
2018-04-02T12:14:58.882Z,14.30
2018-04-02T12:15:58.999Z,14.80
2018-04-02T12:16:58.912Z,10.00
2018-04-02T12:17:58.932Z,11.20
2018-04-02T12:18:58.950Z,9.70
2018-04-02T12:19:58.958Z,7.20
2018-04-02T12:20:59.005Z,6.60
2018-04-02T12:21:58.990Z,5.30
2018-04-02T12:22:59.011Z,5.80
2018-04-02T12:23:59.021Z,5.20
2018-04-02T12:24:59.038Z,5.40
2018-04-02T12:25:59.057Z,5.50
2018-04-02T12:26:59.073Z,5.20
2018-04-02T12:27:59.084Z,5.40
2018-04-02T12:28:59.128Z,5.30
2018-04-02T12:29:59.121Z,4.90
2018-04-02T12:30:59.137Z,5.50
2018-04-02T12:31:59.149Z,5.90
2018-04-02T12:32:59.166Z,6.20
2018-04-02T12:33:59.179Z,6.50
2018-04-02T12:34:59.195Z,6.30
2018-04-02T12:35:59.215Z,6.70
2018-04-02T12:36:59.256Z,6.50
2018-04-02T12:37:59.246Z,6.30
2018-04-02T12:38:59.258Z,6.50
2018-04-02T12:39:59.273Z,6.50
2018-04-02T12:40:59.288Z,7.20
2018-04-02T12:41:59.306Z,6.50
2018-04-02T12:42:59.423Z,5.90
2018-04-02T12:43:59.338Z,5.70
2018-04-02T12:44:59.358Z,5.70
2018-04-02T12:45:59.372Z,5.40
2018-04-02T12:46:59.385Z,5.50
2018-04-02T12:47:59.405Z,5.30
2018-04-02T12:48:59.470Z,5.40
2018-04-02T12:49:59.436Z,5.20
2018-04-02T12:50:59.452Z,5.50
2018-04-02T12:51:59.471Z,4.80
2018-04-02T12:52:59.486Z,4.70
2018-04-02T12:53:59.498Z,5.10